Flight Track Log - Related Links

Times and Time Zones

All times are in EDT time to prevent confusion due to time zone crossing. See the GJS3649 flight status page for this flight to view local times or setup timezone preferences in your user account.

Time Position Orientation Groundspeed Altitude Reporting Facility
EDT Latitude Longitude Course Direction KTS MPH feet Rate Location/Type
Mon 02:51:25 PM 41.9311 -72.7053 338° Northwest 160 184 800  Level Boston Center
Mon 02:51:55 PM 41.9247 -72.7331 253° West 163 188 1,800 2,182 Climbing Boston Center
Mon 02:52:53 PM 41.9183 -72.8028 263° West 187 215 4,000 2,186 Climbing Boston Center
Mon 02:53:53 PM 41.9389 -72.8839 289° West 211 243 6,100 2,231 Climbing Boston Center
Mon 02:54:00 PM 42.4617 -73.0391 340° North  Level FlightAware Approximate
Mon 02:54:54 PM 41.9928 -72.9597 314° West 238 274 8,500  Level Boston Center
Mon 02:55:00 PM 42.6015 -73.1121 334° Northwest  Level FlightAware Approximate
Mon 02:55:52 PM 42.0572 -72.9994 335° Northwest 252 290 10,700  Level Boston Center
Mon 02:56:00 PM 42.7379 -73.1960 338° Northwest  Level FlightAware Approximate
Mon 02:56:53 PM 42.1531 -73.0197 351° North 295 339 12,000  Level Boston Center
Mon 02:57:53 PM 42.2325 -72.9783 21° North 311 358 14,100 1,835 Climbing Boston Center
Mon 02:58:54 PM 42.3386 -72.9736 North 336 387 15,700 1,587 Climbing Boston Center
Mon 02:59:54 PM 42.4342 -73.0308 336° Northwest 356 410 17,300 1,881 Climbing Boston Center
Mon 03:00:52 PM 42.5342 -73.0853 338° Northwest 379 436 19,400 1,831 Climbing Boston Center
Mon 03:01:52 PM 42.6253 -73.1397 336° Northwest 392 451 20,900 1,289 Climbing Boston Center
Mon 03:02:53 PM 42.7314 -73.1975 338° Northwest 400 460 22,000 885 Climbing Boston Center
Mon 03:03:54 PM 42.8456 -73.2614 338° Northwest 412 474 22,700 500 Climbing Boston Center
Mon 03:04:53 PM 42.9575 -73.3336 335° Northwest 429 494 23,000 807 Climbing Boston Center
Mon 03:05:53 PM 43.0022 -73.4706 294° West 392 451 24,300 1,438 Climbing Boston Center
Mon 03:06:54 PM 43.0133 -73.6242 276° West 377 434 25,900 1,525 Climbing Boston Center
Mon 03:07:55 PM 43.0219 -73.7747 275° West 382 440 27,400 1,210 Climbing Boston Center
Mon 03:08:53 PM 43.0325 -73.9256 276° West 395 455 28,300 857 Climbing Boston Center
Mon 03:09:54 PM 43.0431 -74.0822 275° West 406 467 29,100 744 Climbing Boston Center
Mon 03:10:54 PM 43.0553 -74.2417 276° West 417 480 29,800 454 Climbing Boston Center
Mon 03:11:53 PM 43.0650 -74.4011 275° West 422 486 30,000 50 Climbing Boston Center
Mon 03:12:54 PM 43.0728 -74.5547 274° West 422 486 29,900  Descending Boston Center
Mon 03:13:54 PM 43.0825 -74.7003 275° West 405 466 30,000 50 Climbing Boston Center
Mon 03:14:54 PM 43.0917 -74.8569 275° West 405 466 30,000  Level Boston Center
Mon 03:15:52 PM 43.1006 -75.0278 274° West 410 472 30,000  Level Boston Center
Mon 03:16:54 PM 43.1094 -75.1819 275° West 410 472 30,000  Level Boston Center
Mon 03:17:53 PM 43.1161 -75.3300 274° West 404 465 30,000  Level Boston Center
Mon 03:18:53 PM 43.1247 -75.4814 275° West 399 459 30,000  Level Boston Center
Mon 03:19:54 PM 43.1331 -75.6383 274° West 409 471 30,000  Level Boston Center
Mon 03:20:54 PM 43.1411 -75.7894 274° West 409 471 30,000  Level Boston Center
Mon 03:21:52 PM 43.1181 -75.9333 258° West 392 451 30,000  Level Boston Center
Mon 03:22:52 PM 43.0317 -76.0250 218° Southwest 363 418 30,000  Level Boston Center
Mon 03:24:52 PM 42.8442 -76.2078 216° Southwest 405 466 30,000  Level Cleveland Center
Mon 03:27:23 PM 42.6197 -76.4194 215° Southwest 414 476 30,000 28 Level New York Center
Mon 03:28:23 PM 42.5261 -76.5042 214° Southwest 414 476 30,100  Climbing New York Center
Mon 03:29:22 PM 42.4286 -76.5828 211° Southwest 414 476 30,000 -50 Descending New York Center
Mon 03:30:23 PM 42.3425 -76.6817 220° Southwest 414 476 30,000 -347 Level New York Center
Mon 03:31:23 PM 42.2508 -76.7686 215° Southwest 409 471 29,300 -1,537 Descending New York Center
Mon 03:32:24 PM 42.1614 -76.8500 214° Southwest 404 465 26,900 -1,736 Descending New York Center
Mon 03:33:24 PM 42.0758 -76.9317 215° Southwest 398 458 25,800 -1,169 Descending New York Center
Mon 03:34:22 PM 41.9906 -77.0103 214° Southwest 393 452 24,600 -908 Descending New York Center
Mon 03:35:23 PM 41.9053 -77.0914 215° Southwest 387 445 24,000 -295 Descending New York Center
Mon 03:36:24 PM 41.8242 -77.1672 215° Southwest 375 432 24,000  Level New York Center
Mon 03:37:22 PM 41.7364 -77.2478 214° Southwest 375 432 24,000  Level New York Center
Mon 03:38:23 PM 41.6508 -77.3283 215° Southwest 375 432 24,000  Level New York Center
Mon 03:39:23 PM 41.5653 -77.4058 214° Southwest 375 432 24,000 -298 Level New York Center
Mon 03:40:24 PM 41.4794 -77.4861 215° Southwest 375 432 23,400 -942 Descending New York Center
Mon 03:41:24 PM 41.3847 -77.5733 215° Southwest 375 432 22,100 -712 Descending New York Center
Mon 03:42:22 PM 41.2992 -77.6478 213° Southwest 375 432 22,000 -50 Descending New York Center
Mon 03:43:23 PM 41.2111 -77.7297 215° Southwest 375 432 22,000  Level New York Center
Mon 03:44:24 PM 41.1231 -77.8089 214° Southwest 375 432 22,000  Level New York Center
Mon 03:45:22 PM 41.0167 -77.8117 181° South 362 417 22,000 -202 Level New York Center
Mon 03:46:23 PM 40.9008 -77.7611 162° South 388 447 21,600 -744 Descending New York Center
Mon 03:47:23 PM 40.7933 -77.7119 161° South 403 464 20,500 -1,041 Descending New York Center
Mon 03:48:24 PM 40.6875 -77.6656 162° South 403 464 19,500 -756 Descending New York Center
Mon 03:49:22 PM 40.5819 -77.6194 162° South 408 470 19,000 -250 Descending New York Center
Mon 03:50:24 PM 40.4883 -77.5800 162° South 408 470 19,000  Level New York Center
Mon 03:51:24 PM 40.3725 -77.5278 161° South 403 464 19,000 -929 Level New York Center
Mon 03:52:59 PM 40.2000 -77.4500 161° South 396 456 16,600 -1,462 Descending Potomac TRACON
Mon 03:54:00 PM 40.1000 -77.4000 159° South 385 443 15,200 -1,388 Descending Potomac TRACON
Mon 03:55:00 PM 40.0000 -77.3667 166° South 379 436 13,800 -1,100 Descending Potomac TRACON
Mon 03:56:00 PM 39.9000 -77.3167 159° South 376 433 13,000 -800 Descending Potomac TRACON
Mon 03:57:00 PM 39.8167 -77.3000 171° South 337 388 12,200 -1,100 Descending Potomac TRACON
Mon 03:58:00 PM 39.7167 -77.3167 187° South 303 349 10,800 -1,150 Descending Potomac TRACON
Mon 03:59:00 PM 39.6333 -77.3333 189° South 296 341 9,900 -750 Descending Potomac TRACON
Mon 04:00:00 PM 39.5667 -77.3667 201° Southwest 288 331 9,300 -900 Descending Potomac TRACON
Mon 04:01:00 PM 39.5000 -77.4167 210° Southwest 281 323 8,100 -1,300 Descending Potomac TRACON
Mon 04:02:00 PM 39.4333 -77.4500 201° Southwest 286 329 6,700 -1,587 Descending Potomac TRACON
Mon 04:03:01 PM 39.3500 -77.4500 180° South 280 322 4,900 -1,388 Descending Potomac TRACON
Mon 04:04:01 PM 39.2667 -77.4500 180° South 240 276 3,900 -800 Descending Potomac TRACON
Mon 04:05:01 PM 39.2167 -77.4500 180° South 189 217 3,300 -500 Descending Potomac TRACON
Mon 04:06:01 PM 39.1667 -77.4667 194° South 193 222 2,900 -200 Descending Potomac TRACON
Mon 04:07:01 PM 39.1167 -77.4500 165° South 193 222 2,900 -545 Level Potomac TRACON
Mon 04:08:02 PM 39.0500 -77.4667 191° South 193 222 1,800 -942 Descending Potomac TRACON
Mon 04:09:02 PM 39.0000 -77.4667 180° South 157 181 1,000 -800 Descending Potomac TRACON
Mon 04:11:00 PM 38.9474 -77.4599 180° South  Level Estimated
Mon 04:18:00 PM 38.9474 -77.4599 349° North  Level Estimated
Mon 04:19:00 PM 38.9474 -77.4599 349° North  Level Estimated
Mon 04:20:00 PM 38.9474 -77.4599 349° North  Level Estimated

Login

Don't have an account? Register now (free) for customized features, flight alerts, and more!